Time;durP1;ratioP1;P1;durP2;ratioP2;P2;SDS_P1;SDS_P2;PMS_P1;PMS_P2;Temp;Humidity;BMP_temperature;BMP_pressure;BME280_temperature;BME280_humidity;BME280_pressure;Samples;Min_cycle;Max_cycle;Signal;HPM_P1;HPM_P2
2021/05/21 05:00:33;;;;;;;2.88;1.08;;;11.70;95.50;;;;;;6074065;23;20252;-82
2021/05/21 05:03:05;;;;;;;2.17;0.85;;;11.80;95.70;;;;;;4934629;29;20135;-82
2021/05/21 05:05:31;;;;;;;2.05;0.90;;;11.90;95.30;;;;;;4936104;29;20051;-81
2021/05/21 05:07:59;;;;;;;2.72;0.90;;;11.90;95.40;;;;;;4936220;29;20507;-81
2021/05/21 05:10:25;;;;;;;3.55;1.27;;;12.00;95.20;;;;;;4936088;29;20513;-82
2021/05/21 05:12:52;;;;;;;3.10;1.05;;;12.10;95.00;;;;;;4936507;29;20067;-82
2021/05/21 05:15:19;;;;;;;2.08;1.00;;;12.10;95.00;;;;;;4936183;29;20128;-82
2021/05/21 05:17:48;;;;;;;2.40;1.00;;;12.10;95.00;;;;;;4936029;29;20138;-81
2021/05/21 05:20:15;;;;;;;3.20;1.00;;;12.20;94.90;;;;;;4935987;29;20085;-82
2021/05/21 05:22:42;;;;;;;2.50;0.90;;;12.20;95.00;;;;;;4935903;29;20493;-81
2021/05/21 05:25:10;;;;;;;3.58;1.13;;;12.20;94.90;;;;;;4936104;29;20138;-81
2021/05/21 05:27:37;;;;;;;4.32;1.10;;;12.30;94.90;;;;;;5077460;23;20081;-81
2021/05/21 05:30:04;;;;;;;3.45;1.27;;;12.30;94.70;;;;;;4993860;28;20085;-80
2021/05/21 05:32:31;;;;;;;2.70;1.05;;;12.40;94.70;;;;;;4993574;28;20042;-80
2021/05/21 05:34:59;;;;;;;2.72;1.00;;;12.50;94.70;;;;;;4993755;28;20313;-81
2021/05/21 05:37:25;;;;;;;2.15;0.90;;;12.50;94.80;;;;;;4993600;28;20085;-78
2021/05/21 05:39:52;;;;;;;2.90;1.13;;;12.60;94.90;;;;;;4992845;28;20138;-78
2021/05/21 05:42:18;;;;;;;2.50;1.10;;;12.60;95.00;;;;;;4993672;28;20463;-78
2021/05/21 05:44:45;;;;;;;3.45;1.20;;;12.60;94.90;;;;;;4993622;28;20184;-78
2021/05/21 05:47:12;;;;;;;4.38;1.20;;;12.50;95.10;;;;;;4993511;28;20077;-78
2021/05/21 05:49:38;;;;;;;2.65;1.00;;;12.60;95.20;;;;;;4993411;28;20134;-78
2021/05/21 05:52:06;;;;;;;2.88;1.13;;;12.60;95.20;;;;;;4993558;28;20129;-78
2021/05/21 05:54:32;;;;;;;2.50;1.10;;;12.60;95.10;;;;;;4993665;28;20133;-78
2021/05/21 05:56:59;;;;;;;3.70;1.40;;;12.60;95.00;;;;;;4993562;28;20137;-78
2021/05/21 05:59:27;;;;;;;3.00;1.05;;;12.70;95.10;;;;;;4993504;28;20137;-78
2021/05/21 06:01:54;;;;;;;2.33;1.00;;;12.70;95.20;;;;;;4993349;28;20103;-78
2021/05/21 06:04:20;;;;;;;2.25;0.90;;;12.80;95.30;;;;;;4993398;28;20467;-77
2021/05/21 06:06:47;;;;;;;3.15;0.90;;;12.90;95.20;;;;;;4993231;28;20462;-78
2021/05/21 06:09:15;;;;;;;3.30;0.90;;;13.00;95.00;;;;;;4993310;28;20174;-78
2021/05/21 06:11:42;;;;;;;2.55;0.95;;;13.20;94.90;;;;;;4993335;28;20057;-78
2021/05/21 06:14:08;;;;;;;3.08;0.80;;;13.40;94.80;;;;;;4993218;28;20046;-78
2021/05/21 06:16:35;;;;;;;2.78;1.00;;;13.50;94.60;;;;;;4993274;28;20077;-78
2021/05/21 06:19:02;;;;;;;1.90;0.68;;;13.60;94.00;;;;;;4993111;28;20134;-78
2021/05/21 06:21:29;;;;;;;2.25;0.80;;;13.80;93.50;;;;;;4993268;28;20133;-78
2021/05/21 06:23:55;;;;;;;2.67;1.08;;;14.00;93.30;;;;;;4993307;28;20105;-78
2021/05/21 06:26:32;;;;;;;2.25;1.00;;;14.10;93.70;;;;;;4992987;28;20054;-78
2021/05/21 06:28:59;;;;;;;2.15;0.80;;;14.20;94.10;;;;;;4993193;28;20062;-78
2021/05/21 06:31:25;;;;;;;3.53;1.30;;;14.30;94.10;;;;;;4992970;28;20082;-78
2021/05/21 06:33:52;;;;;;;2.53;1.10;;;14.30;94.30;;;;;;4993355;28;20463;-78
2021/05/21 06:36:19;;;;;;;3.85;1.80;;;14.30;94.70;;;;;;4993264;28;20137;-78
2021/05/21 06:38:45;;;;;;;4.65;2.38;;;14.40;94.70;;;;;;4993216;28;20093;-78
2021/05/21 06:41:12;;;;;;;4.38;2.38;;;14.30;94.80;;;;;;4993191;28;20082;-78
2021/05/21 06:43:39;;;;;;;4.28;2.25;;;14.30;94.90;;;;;;4993056;28;20093;-78
2021/05/21 06:46:06;;;;;;;4.70;2.22;;;14.20;94.70;;;;;;4993037;28;20133;-78
2021/05/21 06:48:33;;;;;;;6.55;1.88;;;14.10;94.70;;;;;;4993422;28;20077;-78
2021/05/21 06:51:01;;;;;;;4.53;2.00;;;14.10;95.00;;;;;;4993657;28;20133;-78
2021/05/21 06:53:28;;;;;;;3.78;1.58;;;14.10;95.10;;;;;;4996636;28;20495;-78
2021/05/21 06:55:55;;;;;;;3.90;1.63;;;14.10;95.30;;;;;;4996674;28;20051;-78
2021/05/21 06:58:24;;;;;;;3.58;1.67;;;14.10;95.40;;;;;;4996452;28;20077;-78
2021/05/21 07:00:52;;;;;;;3.53;1.40;;;14.10;95.60;;;;;;4996181;28;20043;-78
2021/05/21 07:03:18;;;;;;;5.97;1.90;;;14.10;95.70;;;;;;4996493;28;20142;-78
2021/05/21 07:05:45;;;;;;;3.85;1.65;;;14.10;95.80;;;;;;4996366;28;20049;-78
2021/05/21 07:08:12;;;;;;;3.22;1.30;;;14.20;95.90;;;;;;4996284;28;20499;-78
2021/05/21 07:10:38;;;;;;;4.35;1.73;;;14.20;96.00;;;;;;4996080;28;20050;-78
2021/05/21 07:13:09;;;;;;;3.20;1.52;;;14.30;96.10;;;;;;4996055;28;20078;-78
2021/05/21 07:15:36;;;;;;;3.70;1.52;;;14.40;95.80;;;;;;4996190;28;20092;-78
2021/05/21 07:18:05;;;;;;;2.88;1.27;;;14.40;95.70;;;;;;4996154;28;20054;-78
2021/05/21 07:20:31;;;;;;;2.97;1.27;;;14.50;95.80;;;;;;4995920;28;20129;-78
2021/05/21 07:22:58;;;;;;;3.38;1.33;;;14.60;95.40;;;;;;4996062;28;20462;-78
2021/05/21 07:25:26;;;;;;;2.10;1.02;;;14.70;95.20;;;;;;4996012;28;20127;-78
2021/05/21 07:27:53;;;;;;;3.53;1.20;;;14.80;94.70;;;;;;4995757;28;20116;-78
2021/05/21 07:30:20;;;;;;;3.75;1.20;;;14.90;94.40;;;;;;4995725;28;20047;-78
2021/05/21 07:32:47;;;;;;;2.90;1.20;;;15.00;94.00;;;;;;4995813;28;20166;-77
2021/05/21 07:35:15;;;;;;;2.28;1.02;;;15.00;93.80;;;;;;4996101;28;20128;-77
2021/05/21 07:37:44;;;;;;;3.00;1.15;;;15.10;93.60;;;;;;4995809;28;20452;-78
2021/05/21 07:40:11;;;;;;;2.20;0.95;;;15.20;93.40;;;;;;4995643;28;20105;-78
2021/05/21 07:42:38;;;;;;;3.85;1.27;;;15.30;93.60;;;;;;4995613;28;20137;-78
2021/05/21 07:45:08;;;;;;;3.72;1.10;;;15.40;94.10;;;;;;4995534;28;20498;-78
2021/05/21 07:47:35;;;;;;;3.47;1.38;;;15.50;94.40;;;;;;4995603;28;20089;-77
2021/05/21 07:50:02;;;;;;;4.13;1.38;;;15.50;94.80;;;;;;4995563;28;20130;-77
2021/05/21 07:52:29;;;;;;;3.95;1.30;;;15.50;94.90;;;;;;4995385;28;20598;-78
2021/05/21 07:54:56;;;;;;;3.00;1.33;;;15.50;94.60;;;;;;4995567;28;20136;-78
2021/05/21 07:57:24;;;;;;;3.30;1.23;;;15.50;94.00;;;;;;4995338;28;20137;-78
2021/05/21 07:59:50;;;;;;;2.30;1.00;;;15.50;93.80;;;;;;4995665;28;20060;-77
2021/05/21 08:02:17;;;;;;;2.55;1.10;;;15.60;93.90;;;;;;4994729;28;20089;-78
2021/05/21 08:04:44;;;;;;;3.63;1.00;;;15.70;93.90;;;;;;4995022;28;20138;-78
2021/05/21 08:07:10;;;;;;;3.85;1.40;;;15.80;93.90;;;;;;4995343;28;20104;-77
2021/05/21 08:09:40;;;;;;;3.80;1.20;;;15.80;93.60;;;;;;4995026;28;20514;-78
2021/05/21 08:12:09;;;;;;;2.63;0.90;;;15.90;93.00;;;;;;4995002;28;20074;-78
2021/05/21 08:14:36;;;;;;;2.05;0.93;;;15.90;93.00;;;;;;4995325;28;20050;-77
2021/05/21 08:17:03;;;;;;;3.00;0.90;;;15.90;92.40;;;;;;4994895;28;20053;-78
2021/05/21 08:19:30;;;;;;;2.13;0.70;;;16.00;91.90;;;;;;4994870;28;20086;-78
2021/05/21 08:21:56;;;;;;;2.78;0.90;;;16.00;91.90;;;;;;4994974;28;20104;-78
2021/05/21 08:24:23;;;;;;;2.80;0.77;;;16.10;90.80;;;;;;4995040;28;20073;-78
2021/05/21 08:26:50;;;;;;;3.97;1.15;;;16.10;90.60;;;;;;4983855;28;20079;-77
2021/05/21 08:29:17;;;;;;;3.20;1.08;;;16.20;85.60;;;;;;4994907;28;20097;-78
2021/05/21 08:31:44;;;;;;;2.67;0.88;;;16.20;84.30;;;;;;4994717;28;20444;-77
2021/05/21 08:34:11;;;;;;;2.70;0.65;;;16.20;79.70;;;;;;4994993;28;20416;-78
2021/05/21 08:36:37;;;;;;;3.33;0.80;;;16.30;78.60;;;;;;4994456;28;20050;-78
2021/05/21 08:39:05;;;;;;;2.97;0.75;;;16.40;75.90;;;;;;4994707;28;20085;-77
2021/05/21 08:41:32;;;;;;;1.77;0.50;;;16.40;73.40;;;;;;4994642;28;20460;-77
2021/05/21 08:43:59;;;;;;;2.92;0.85;;;16.40;71.80;;;;;;4994369;28;20061;-77
2021/05/21 08:46:27;;;;;;;2.97;0.55;;;16.50;71.60;;;;;;4994435;28;20129;-78
2021/05/21 08:48:58;;;;;;;3.53;0.70;;;16.60;71.50;;;;;;4994365;28;20046;-77
2021/05/21 08:51:26;;;;;;;2.28;0.73;;;16.60;70.80;;;;;;4994347;28;20451;-78
2021/05/21 08:53:53;;;;;;;2.05;0.75;;;16.70;69.90;;;;;;4994400;28;20104;-78
2021/05/21 08:56:19;;;;;;;1.52;0.50;;;16.70;68.90;;;;;;4994615;28;20078;-78
2021/05/21 08:58:46;;;;;;;3.08;0.85;;;16.70;68.60;;;;;;4994371;28;20081;-77
2021/05/21 09:01:14;;;;;;;3.95;0.88;;;16.80;68.70;;;;;;4994131;28;20096;-78
2021/05/21 09:03:40;;;;;;;1.38;0.57;;;16.80;68.30;;;;;;4993989;28;20138;-78
2021/05/21 09:06:13;;;;;;;3.22;0.70;;;16.80;69.10;;;;;;4993942;28;20057;-78
2021/05/21 09:08:43;;;;;;;1.40;0.50;;;16.80;69.60;;;;;;4994090;28;20058;-78
2021/05/21 09:11:40;;;;;;;3.17;0.63;;;16.70;70.40;;;;;;4994123;28;20050;-77
2021/05/21 09:14:09;;;;;;;1.75;0.57;;;16.70;71.90;;;;;;4960449;28;20050;-78
2021/05/21 09:16:39;;;;;;;2.92;0.80;;;16.70;72.00;;;;;;4994074;28;20046;-78
2021/05/21 09:19:13;;;;;;;1.92;0.70;;;16.70;72.60;;;;;;4994275;28;20085;-77
2021/05/21 09:22:06;;;;;;;2.33;0.60;;;16.60;72.70;;;;;;4994031;28;20053;-78
2021/05/21 09:24:35;;;;;;;3.05;0.77;;;16.50;73.50;;;;;;4980032;28;20403;-77
2021/05/21 09:27:03;;;;;;;2.72;0.68;;;16.50;73.30;;;;;;4992564;28;20082;-77
2021/05/21 09:29:44;;;;;;;1.88;0.65;;;16.50;72.70;;;;;;4993783;28;20127;-79
2021/05/21 09:32:28;;;;;;;1.88;0.52;;;16.40;72.80;;;;;;4993840;28;20046;-78
2021/05/21 09:35:10;;;;;;;2.60;0.70;;;16.40;73.70;;;;;;4993756;28;20057;-79
2021/05/21 09:37:44;;;;;;;1.17;0.50;;;16.30;72.90;;;;;;4994017;28;20050;-79
2021/05/21 09:40:15;;;;;;;1.95;0.60;;;16.30;73.40;;;;;;4993696;28;20046;-78
2021/05/21 09:42:57;;;;;;;1.60;0.73;;;16.30;73.20;;;;;;4993409;28;20078;-79
2021/05/21 09:45:28;;;;;;;1.83;0.70;;;16.30;73.00;;;;;;4993718;28;20046;-79
2021/05/21 09:47:59;;;;;;;1.98;0.60;;;16.30;72.90;;;;;;4993934;28;20069;-79
2021/05/21 09:50:41;;;;;;;2.25;0.75;;;16.30;73.40;;;;;;4993310;28;20137;-79
2021/05/21 09:53:12;;;;;;;2.05;0.50;;;16.30;73.60;;;;;;4993451;28;20109;-78
2021/05/21 09:55:43;;;;;;;1.75;0.60;;;16.30;74.20;;;;;;4993435;28;20104;-79
2021/05/21 09:58:27;;;;;;;2.22;0.75;;;16.30;74.90;;;;;;4993788;28;20468;-79
2021/05/21 10:01:09;;;;;;;2.45;0.70;;;16.30;75.60;;;;;;4993407;28;20564;-79
2021/05/21 10:03:37;;;;;;;2.58;0.60;;;16.30;76.60;;;;;;4993419;28;20129;-79
2021/05/21 10:06:04;;;;;;;2.15;0.80;;;16.30;77.00;;;;;;4993287;28;20144;-79
2021/05/21 10:08:31;;;;;;;1.90;0.80;;;16.20;77.40;;;;;;4993516;28;20080;-79
2021/05/21 10:10:57;;;;;;;1.48;0.68;;;16.20;78.00;;;;;;4993634;28;20455;-79
2021/05/21 10:13:24;;;;;;;2.58;0.65;;;16.20;78.40;;;;;;4993399;28;20133;-79
2021/05/21 10:15:51;;;;;;;6.60;1.98;;;16.20;77.90;;;;;;4993556;28;20081;-79
2021/05/21 10:18:18;;;;;;;4.60;1.88;;;16.20;77.70;;;;;;4992780;28;20046;-79
2021/05/21 10:20:47;;;;;;;9.88;4.32;;;16.10;78.70;;;;;;4992612;28;20078;-78
2021/05/21 10:23:18;;;;;;;3.10;1.00;;;16.10;78.00;;;;;;4993264;28;20084;-81
2021/05/21 10:25:46;;;;;;;2.40;0.75;;;16.20;78.40;;;;;;4993494;28;20101;-81
2021/05/21 10:28:14;;;;;;;2.13;0.60;;;16.20;78.20;;;;;;4996658;28;20050;-81
2021/05/21 10:30:41;;;;;;;2.17;0.55;;;16.10;77.90;;;;;;4996544;28;20054;-81
2021/05/21 10:33:20;;;;;;;2.13;0.70;;;16.10;78.00;;;;;;4996643;28;20141;-81
2021/05/21 10:35:48;;;;;;;1.35;0.50;;;16.10;77.70;;;;;;4996947;28;20053;-81
2021/05/21 10:38:20;;;;;;;1.58;0.60;;;16.10;77.20;;;;;;4996481;28;20073;-80
2021/05/21 10:41:14;;;;;;;1.98;0.68;;;16.10;75.40;;;;;;4994119;28;20089;-79
2021/05/21 10:43:48;;;;;;;0.85;0.55;;;16.00;74.20;;;;;;4992865;28;20043;-81
2021/05/21 10:46:16;;;;;;;0.95;0.40;;;16.00;74.10;;;;;;4993769;28;20161;-82
2021/05/21 10:49:02;;;;;;;2.47;0.70;;;15.90;74.60;;;;;;4993646;28;20495;-81
2021/05/21 10:51:49;;;;;;;2.28;0.60;;;15.90;74.80;;;;;;4993487;28;20053;-81
2021/05/21 10:54:29;;;;;;;1.98;0.60;;;15.90;75.30;;;;;;4993668;28;20208;-81
2021/05/21 10:57:08;;;;;;;0.85;0.40;;;15.80;75.10;;;;;;4991985;28;20096;-82
2021/05/21 10:59:54;;;;;;;2.53;0.73;;;15.80;74.40;;;;;;4993555;28;20129;-81
2021/05/21 11:02:23;;;;;;;2.22;0.80;;;15.80;74.80;;;;;;4976229;28;20054;-83
2021/05/21 11:04:50;;;;;;;1.55;0.55;;;15.80;74.90;;;;;;4992982;28;20051;-82
2021/05/21 11:07:34;;;;;;;3.33;0.80;;;15.70;74.10;;;;;;4993224;28;20287;-81
2021/05/21 11:10:01;;;;;;;2.92;0.80;;;15.70;74.70;;;;;;4977691;28;20042;-81
2021/05/21 11:12:44;;;;;;;1.98;0.60;;;15.80;74.40;;;;;;4993327;28;20066;-82
2021/05/21 11:15:36;;;;;;;1.33;0.50;;;15.80;74.80;;;;;;4993409;28;20050;-81
2021/05/21 11:18:31;;;;;;;0.52;0.30;;;15.80;74.30;;;;;;4992461;28;20169;-80
2021/05/21 11:21:06;;;;;;;1.40;0.50;;;15.80;74.10;;;;;;4992957;28;20050;-81
2021/05/21 11:23:38;;;;;;;0.85;0.40;;;15.90;73.90;;;;;;4992346;28;20451;-81
2021/05/21 11:26:27;;;;;;;2.75;0.50;;;15.90;74.00;;;;;;4993088;28;20050;-81
2021/05/21 11:28:59;;;;;;;1.55;0.60;;;15.90;74.00;;;;;;4993359;28;20054;-81
2021/05/21 11:31:28;;;;;;;1.83;0.50;;;16.00;74.60;;;;;;4993127;28;20057;-80
2021/05/21 11:33:58;;;;;;;5.03;1.70;;;16.10;74.40;;;;;;4992047;28;20133;-81
2021/05/21 11:36:26;;;;;;;7.95;3.38;;;16.10;74.70;;;;;;4992974;28;20059;-82
2021/05/21 11:38:54;;;;;;;2.78;0.90;;;16.10;74.90;;;;;;4991673;28;20089;-81
2021/05/21 11:41:29;;;;;;;2.10;0.60;;;16.20;77.20;;;;;;4992841;28;20046;-81
2021/05/21 11:44:01;;;;;;;2.33;0.70;;;16.20;78.70;;;;;;4992352;28;20081;-81
2021/05/21 11:46:28;;;;;;;2.15;0.60;;;16.20;77.40;;;;;;4992770;28;20045;-81
2021/05/21 11:48:54;;;;;;;1.85;0.60;;;16.30;74.80;;;;;;4992383;28;20077;-81
2021/05/21 11:51:24;;;;;;;1.67;0.55;;;16.30;70.70;;;;;;4992757;28;20145;-81
2021/05/21 11:53:53;;;;;;;1.42;0.50;;;16.30;71.50;;;;;;4992163;28;20192;-81
2021/05/21 11:56:30;;;;;;;1.55;0.60;;;16.20;70.70;;;;;;4992303;28;20074;-80
2021/05/21 11:59:01;;;;;;;2.15;0.60;;;16.20;69.60;;;;;;4992262;28;20129;-80
2021/05/21 12:01:29;;;;;;;1.90;0.52;;;16.30;69.40;;;;;;4992302;28;20133;-80
2021/05/21 12:03:57;;;;;;;1.80;0.70;;;16.20;68.90;;;;;;4992280;28;20070;-80
2021/05/21 12:06:24;;;;;;;1.55;0.52;;;16.20;69.70;;;;;;4992154;28;20138;-79
2021/05/21 12:08:51;;;;;;;1.08;0.47;;;16.10;70.30;;;;;;4991992;28;20184;-81
2021/05/21 12:11:19;;;;;;;1.20;0.55;;;16.10;70.30;;;;;;4991928;28;20142;-81
2021/05/21 12:13:46;;;;;;;1.50;0.70;;;16.10;70.50;;;;;;4992005;28;20133;-81
2021/05/21 12:16:15;;;;;;;2.42;0.52;;;16.10;70.60;;;;;;4974785;28;20069;-81
2021/05/21 12:18:42;;;;;;;1.40;0.50;;;16.10;70.90;;;;;;4992129;28;20046;-82
2021/05/21 12:21:09;;;;;;;1.88;0.60;;;16.20;71.40;;;;;;4991958;28;20125;-81
2021/05/21 12:23:38;;;;;;;1.17;0.50;;;16.20;70.10;;;;;;4991873;28;20073;-79
2021/05/21 12:26:06;;;;;;;1.63;0.50;;;16.10;69.20;;;;;;4991744;28;20082;-79
2021/05/21 12:28:35;;;;;;;1.48;0.50;;;16.10;69.50;;;;;;4991882;28;20054;-79
2021/05/21 12:31:04;;;;;;;0.90;0.50;;;16.10;68.60;;;;;;4991713;28;20050;-79
2021/05/21 12:33:33;;;;;;;2.25;0.60;;;16.10;68.40;;;;;;4991872;28;20078;-80
2021/05/21 12:36:06;;;;;;;1.75;0.60;;;16.20;66.70;;;;;;4991152;28;20046;-80
2021/05/21 12:38:34;;;;;;;1.73;0.60;;;16.10;65.60;;;;;;4991987;28;20077;-80
2021/05/21 12:41:02;;;;;;;1.95;0.55;;;16.10;65.90;;;;;;4991565;28;20056;-79
2021/05/21 12:43:31;;;;;;;1.55;0.50;;;16.10;65.60;;;;;;4991668;28;20133;-80
2021/05/21 12:46:04;;;;;;;1.40;0.60;;;16.10;65.60;;;;;;4991110;28;20689;-79
2021/05/21 12:48:36;;;;;;;1.50;0.50;;;16.10;64.60;;;;;;4991042;28;20089;-79
2021/05/21 12:51:25;;;;;;;2.95;0.68;;;16.10;64.90;;;;;;4991298;28;20054;-79
2021/05/21 12:53:53;;;;;;;1.85;0.55;;;16.10;65.30;;;;;;4991098;28;20085;-79
2021/05/21 12:56:33;;;;;;;1.77;0.60;;;16.10;65.00;;;;;;4990985;28;20074;-80
2021/05/21 12:59:05;;;;;;;1.45;0.60;;;16.10;65.30;;;;;;4991047;28;20385;-80
2021/05/21 13:01:33;;;;;;;1.63;0.52;;;16.10;65.70;;;;;;4991348;28;20048;-80
2021/05/21 13:04:00;;;;;;;1.38;0.50;;;16.10;65.50;;;;;;4991110;28;20526;-80
2021/05/21 13:06:32;;;;;;;1.67;0.52;;;16.10;65.60;;;;;;4991230;28;20244;-78
2021/05/21 13:09:05;;;;;;;1.27;0.50;;;16.00;66.20;;;;;;4990803;28;20129;-81
2021/05/21 13:11:48;;;;;;;6.00;0.88;;;15.90;66.50;;;;;;4980654;28;20078;-83
2021/05/21 13:14:14;;;;;;;2.70;0.70;;;15.80;67.20;;;;;;4991189;28;20050;-82
2021/05/21 13:16:49;;;;;;;1.15;0.50;;;15.80;67.80;;;;;;4990463;28;20563;-81
2021/05/21 13:19:25;;;;;;;1.77;0.60;;;15.70;68.00;;;;;;4977481;28;20073;-81
2021/05/21 13:21:53;;;;;;;2.25;0.73;;;15.70;68.80;;;;;;4990624;28;20105;-82
2021/05/21 13:24:24;;;;;;;3.78;0.70;;;15.60;69.70;;;;;;4990889;28;20058;-81
2021/05/21 13:26:54;;;;;;;2.78;0.68;;;15.60;70.20;;;;;;4990039;28;20058;-84
2021/05/21 13:29:21;;;;;;;2.80;0.70;;;15.50;70.30;;;;;;4988789;28;20121;-85
2021/05/21 13:31:49;;;;;;;1.23;0.60;;;15.50;70.60;;;;;;4987622;28;20141;-84
2021/05/21 13:34:17;;;;;;;2.05;0.70;;;15.50;70.10;;;;;;4990791;28;20062;-83
2021/05/21 13:36:44;;;;;;;2.10;0.80;;;15.40;70.30;;;;;;4992902;28;20043;-85
2021/05/21 13:39:11;;;;;;;2.25;0.60;;;15.50;70.80;;;;;;4992034;28;20082;-86
2021/05/21 13:41:38;;;;;;;2.47;0.70;;;15.50;70.70;;;;;;4992342;28;20148;-87
2021/05/21 13:44:06;;;;;;;1.67;0.55;;;15.50;70.00;;;;;;4992327;28;20078;-85
2021/05/21 13:46:33;;;;;;;2.33;0.77;;;15.50;70.20;;;;;;4991384;28;20225;-86
2021/05/21 13:49:00;;;;;;;1.98;0.50;;;15.50;69.80;;;;;;4991692;28;20093;-86
2021/05/21 13:51:27;;;;;;;1.88;0.65;;;15.40;69.60;;;;;;4991504;28;20081;-85
2021/05/21 13:53:54;;;;;;;1.88;0.63;;;15.40;69.50;;;;;;4991593;28;20125;-86
2021/05/21 13:56:20;;;;;;;2.10;0.50;;;15.40;70.10;;;;;;4992814;28;20141;-84
2021/05/21 13:58:47;;;;;;;1.48;0.50;;;15.30;70.10;;;;;;4991557;28;20490;-86
2021/05/21 14:01:14;;;;;;;1.30;0.50;;;15.30;71.00;;;;;;4992443;28;20086;-85
2021/05/21 14:03:41;;;;;;;1.52;0.50;;;15.30;70.70;;;;;;4995351;28;20078;-86
2021/05/21 14:06:09;;;;;;;1.58;0.50;;;15.30;71.00;;;;;;4995355;28;20077;-87
2021/05/21 14:08:37;;;;;;;1.65;0.50;;;15.30;71.10;;;;;;4995420;28;20046;-86
2021/05/21 14:11:06;;;;;;;1.55;0.35;;;15.30;71.40;;;;;;4995553;28;20056;-85
2021/05/21 14:13:34;;;;;;;1.42;0.50;;;15.30;71.60;;;;;;4995357;28;20050;-86
2021/05/21 14:16:01;;;;;;;1.00;0.40;;;15.30;71.10;;;;;;4994651;28;20078;-84
2021/05/21 14:18:28;;;;;;;2.65;0.70;;;15.40;70.60;;;;;;4994480;28;20133;-87
2021/05/21 14:20:55;;;;;;;1.38;0.40;;;15.40;69.90;;;;;;4995673;28;20130;-86
2021/05/21 14:23:22;;;;;;;1.38;0.28;;;15.40;70.00;;;;;;4993906;28;20520;-85
2021/05/21 14:25:50;;;;;;;1.10;0.40;;;15.30;70.40;;;;;;4994107;28;20415;-85
2021/05/21 14:28:19;;;;;;;0.80;0.30;;;15.30;71.10;;;;;;4994008;28;20051;-85
2021/05/21 14:30:46;;;;;;;1.65;0.38;;;15.20;70.40;;;;;;4994096;28;20046;-86
2021/05/21 14:33:13;;;;;;;1.10;0.30;;;15.20;70.70;;;;;;4994508;28;20049;-84
2021/05/21 14:35:39;;;;;;;0.47;0.22;;;15.20;70.90;;;;;;4993505;28;20476;-82
2021/05/21 14:38:06;;;;;;;1.42;0.40;;;15.10;72.00;;;;;;4992359;28;20129;-81
2021/05/21 14:40:34;;;;;;;0.82;0.30;;;15.00;71.80;;;;;;4993458;28;20124;-82
2021/05/21 14:43:01;;;;;;;0.68;0.30;;;15.00;72.70;;;;;;4993923;28;20050;-82
2021/05/21 14:45:28;;;;;;;0.47;0.28;;;14.90;73.40;;;;;;4993018;28;20050;-84
2021/05/21 14:47:55;;;;;;;1.40;0.40;;;14.90;74.00;;;;;;4993370;28;20125;-81
2021/05/21 14:50:22;;;;;;;1.00;0.22;;;14.80;74.40;;;;;;4993326;28;20499;-81
2021/05/21 14:52:49;;;;;;;0.82;0.30;;;14.70;74.80;;;;;;4993189;28;20077;-82
2021/05/21 14:55:18;;;;;;;1.88;0.47;;;14.80;75.40;;;;;;4993088;28;20077;-80
2021/05/21 14:57:48;;;;;;;1.17;0.40;;;14.70;75.90;;;;;;4992810;28;20086;-81
2021/05/21 15:00:17;;;;;;;1.67;0.40;;;14.70;75.70;;;;;;4993669;28;20050;-78
2021/05/21 15:02:43;;;;;;;1.65;0.43;;;14.60;76.00;;;;;;4993622;28;20131;-83
2021/05/21 15:05:14;;;;;;;1.42;0.43;;;14.70;75.60;;;;;;4993341;28;20081;-81
2021/05/21 15:07:41;;;;;;;1.77;0.45;;;14.80;75.80;;;;;;4991580;28;20443;-81
2021/05/21 15:10:11;;;;;;;2.50;0.60;;;14.90;75.70;;;;;;4992975;28;20456;-80
2021/05/21 15:12:38;;;;;;;2.13;0.55;;;14.90;75.50;;;;;;4992338;28;20046;-84
2021/05/21 15:15:12;;;;;;;1.65;0.52;;;15.00;75.60;;;;;;4992328;28;20038;-81
2021/05/21 15:17:57;;;;;;;2.70;0.50;;;15.10;75.80;;;;;;4990570;28;20661;-80
2021/05/21 15:25:53;;;;;;;1.50;0.50;;;15.20;75.80;;;;;;4991119;28;20065;-78
2021/05/21 15:28:20;;;;;;;0.60;0.40;;;15.20;75.20;;;;;;4993798;28;20404;-81
2021/05/21 15:30:50;;;;;;;1.23;0.50;;;15.20;75.50;;;;;;4995210;28;20133;-79
2021/05/21 15:33:17;;;;;;;0.98;0.40;;;15.20;76.40;;;;;;4995540;28;20057;-78
2021/05/21 15:35:44;;;;;;;2.30;0.50;;;15.10;76.10;;;;;;4995491;28;20046;-83
2021/05/21 15:38:12;;;;;;;1.27;0.60;;;15.10;76.60;;;;;;4995217;28;20493;-85
2021/05/21 15:40:40;;;;;;;2.97;0.70;;;15.10;77.70;;;;;;4989738;28;20278;-83
2021/05/21 15:45:57;;;;;;;1.80;0.70;;;15.20;78.40;;;;;;4991802;28;20050;-84
2021/05/21 15:48:32;;;;;;;1.85;0.68;;;15.10;79.10;;;;;;5001513;28;20038;-83
2021/05/21 15:51:05;;;;;;;1.70;0.70;;;15.10;79.80;;;;;;4995189;28;20057;-84
2021/05/21 15:53:41;;;;;;;1.42;0.50;;;15.00;80.60;;;;;;5003524;28;20050;-83
2021/05/21 15:59:02;;;;;;;;;;;14.90;82.30;;;;;;5001977;28;20554;-79
2021/05/21 16:01:31;;;;;;;2.33;1.00;;;14.80;83.20;;;;;;4994895;28;19925;-79
2021/05/21 16:03:57;;;;;;;2.80;0.70;;;14.70;83.60;;;;;;4994557;28;20554;-78
2021/05/21 16:06:25;;;;;;;2.25;0.60;;;14.70;84.30;;;;;;4995024;28;20043;-80
2021/05/21 16:08:51;;;;;;;1.92;0.70;;;14.70;85.00;;;;;;4994634;28;20050;-80
2021/05/21 16:11:21;;;;;;;1.83;0.70;;;14.70;84.60;;;;;;4994931;28;20496;-81
2021/05/21 16:13:48;;;;;;;1.50;0.70;;;14.70;85.20;;;;;;4994922;28;20104;-83
2021/05/21 16:16:14;;;;;;;2.05;0.95;;;14.60;85.30;;;;;;4995000;28;20129;-83
2021/05/21 16:18:42;;;;;;;1.92;0.70;;;14.50;85.80;;;;;;4994690;28;20475;-80
2021/05/21 16:21:09;;;;;;;1.35;0.60;;;14.50;86.80;;;;;;4994572;28;20078;-78
2021/05/21 16:23:36;;;;;;;1.38;0.50;;;14.50;86.90;;;;;;4994285;28;20046;-81
2021/05/21 16:26:04;;;;;;;1.85;0.68;;;14.50;86.90;;;;;;4994541;28;20568;-78
2021/05/21 16:28:31;;;;;;;2.72;0.65;;;14.50;86.70;;;;;;4994558;28;20080;-78
2021/05/21 16:30:57;;;;;;;1.27;0.52;;;14.50;86.90;;;;;;4994288;28;20101;-79
2021/05/21 16:33:24;;;;;;;1.42;0.60;;;14.50;87.10;;;;;;4994556;28;20109;-81
2021/05/21 16:35:52;;;;;;;2.00;0.63;;;14.60;87.10;;;;;;4994267;28;20047;-81
2021/05/21 16:38:18;;;;;;;1.80;0.50;;;14.60;87.70;;;;;;4994701;28;20447;-80
2021/05/21 16:40:45;;;;;;;1.77;0.52;;;14.60;87.50;;;;;;4993968;28;20161;-80
2021/05/21 16:43:13;;;;;;;1.83;0.50;;;14.70;86.90;;;;;;4980394;28;20108;-80
2021/05/21 16:45:40;;;;;;;0.88;0.35;;;14.70;86.90;;;;;;4994433;28;20050;-80
2021/05/21 16:48:08;;;;;;;0.98;0.45;;;14.70;87.60;;;;;;4994502;28;20082;-79
2021/05/21 16:50:35;;;;;;;1.67;0.50;;;14.70;86.60;;;;;;4994125;28;20101;-82
2021/05/21 16:53:04;;;;;;;0.65;0.38;;;14.70;86.40;;;;;;4994266;28;20104;-82
2021/05/21 16:55:32;;;;;;;1.15;0.50;;;14.70;86.30;;;;;;4993009;28;20061;-84
2021/05/21 16:57:59;;;;;;;2.10;0.60;;;14.60;86.80;;;;;;4991233;28;20484;-84
2021/05/21 17:00:27;;;;;;;1.27;0.50;;;14.60;86.90;;;;;;5008231;28;20511;-84
2021/05/21 17:02:54;;;;;;;1.13;0.50;;;14.60;87.40;;;;;;4995459;28;20125;-82
2021/05/21 17:05:21;;;;;;;1.42;0.60;;;14.50;87.50;;;;;;5000295;28;20153;-82
2021/05/21 17:07:48;;;;;;;1.08;0.35;;;14.50;87.60;;;;;;4994794;28;20054;-83
2021/05/21 17:10:18;;;;;;;1.83;0.50;;;14.50;88.50;;;;;;4999293;28;20038;-84
2021/05/21 17:12:46;;;;;;;1.48;0.50;;;14.50;88.10;;;;;;5003683;28;20145;-82
2021/05/21 17:15:28;;;;;;;1.20;0.50;;;14.50;88.30;;;;;;5000534;28;20046;-82
2021/05/21 17:26:29;;;;;;;1.70;0.50;;;14.60;87.90;;;;;;4989600;28;20465;-82
2021/05/21 17:43:03;;;;;;;1.50;0.40;;;14.60;88.70;;;;;;4990837;28;20042;-82
2021/05/21 17:45:33;;;;;;;1.15;0.40;;;14.60;88.60;;;;;;4991038;28;20097;-83
2021/05/21 17:48:01;;;;;;;0.80;0.40;;;14.60;89.30;;;;;;4990943;28;20065;-82
2021/05/21 17:53:34;;;;;;;;;;;14.60;88.90;;;;;;4975890;28;20046;-83
2021/05/21 18:04:46;;;;;;;2.35;0.40;;;14.50;89.10;;;;;;4939403;28;20052;-83
2021/05/21 18:07:21;;;;;;;0.85;0.50;;;14.50;89.30;;;;;;4990913;28;20093;-84
2021/05/21 18:10:03;;;;;;;1.08;0.40;;;14.40;89.40;;;;;;4991137;28;20133;-85
2021/05/21 18:12:33;;;;;;;1.27;0.40;;;14.40;89.70;;;;;;4990856;28;20108;-84
2021/05/21 18:15:26;;;;;;;1.20;0.50;;;14.40;89.90;;;;;;4990904;28;20061;-85
2021/05/21 18:45:46;;;;;;;2.30;0.95;;;14.40;91.30;;;;;;4965793;28;20054;-87
2021/05/21 18:48:36;;;;;;;2.10;0.70;;;14.50;91.40;;;;;;4991419;28;20045;-80
2021/05/21 18:54:09;;;;;;;2.85;1.10;;;14.60;91.30;;;;;;4992743;28;20050;-80
2021/05/21 19:02:08;;;;;;;4.50;1.85;;;14.70;90.30;;;;;;4978464;28;20100;-80
2021/05/21 19:04:39;;;;;;;1.65;0.60;;;14.70;90.20;;;;;;4993363;28;20345;-79
2021/05/21 19:09:50;;;;;;;1.92;0.70;;;14.60;90.10;;;;;;4989144;28;20111;-80
2021/05/21 19:12:30;;;;;;;1.88;0.60;;;14.50;89.90;;;;;;4993088;28;20476;-79
2021/05/21 19:17:53;;;;;;;1.40;0.60;;;14.50;89.80;;;;;;4993055;28;20136;-80
2021/05/21 19:20:24;;;;;;;1.75;0.60;;;14.40;89.70;;;;;;4992938;28;20046;-78
2021/05/21 19:23:04;;;;;;;1.27;0.68;;;14.40;89.50;;;;;;4993659;28;20052;-78
2021/05/21 19:25:32;;;;;;;1.15;0.50;;;14.40;89.10;;;;;;4994024;28;20046;-77
2021/05/21 19:28:05;;;;;;;0.82;0.40;;;14.40;88.90;;;;;;4993257;28;20054;-79